sensor_id;sensor_type;location;lat;lon;timestamp;temperature;humidity
53498;DHT22;39382;47.168;16.008;2023-12-28T00:00:41;1.40;99.90
53498;DHT22;39382;47.168;16.008;2023-12-28T00:03:07;1.30;99.90
53498;DHT22;39382;47.168;16.008;2023-12-28T00:05:32;1.40;99.90
53498;DHT22;39382;47.168;16.008;2023-12-28T00:07:58;1.40;99.90
53498;DHT22;39382;47.168;16.008;2023-12-28T00:10:25;1.30;99.90
53498;DHT22;39382;47.168;16.008;2023-12-28T00:12:50;2.50;99.90
53498;DHT22;39382;47.168;16.008;2023-12-28T00:15:16;1.80;99.90
53498;DHT22;39382;47.168;16.008;2023-12-28T00:17:42;2.00;99.90
53498;DHT22;39382;47.168;16.008;2023-12-28T00:20:08;1.30;99.90
53498;DHT22;39382;47.168;16.008;2023-12-28T00:22:33;1.40;99.90
53498;DHT22;39382;47.168;16.008;2023-12-28T00:24:59;1.30;99.90
53498;DHT22;39382;47.168;16.008;2023-12-28T00:27:25;1.30;99.90
53498;DHT22;39382;47.168;16.008;2023-12-28T00:29:50;1.30;99.90
53498;DHT22;39382;47.168;16.008;2023-12-28T00:32:16;1.30;99.90
53498;DHT22;39382;47.168;16.008;2023-12-28T00:34:42;1.30;99.90
53498;DHT22;39382;47.168;16.008;2023-12-28T00:37:07;1.30;99.90
53498;DHT22;39382;47.168;16.008;2023-12-28T00:39:33;1.20;99.90
53498;DHT22;39382;47.168;16.008;2023-12-28T00:41:59;1.20;99.90
53498;DHT22;39382;47.168;16.008;2023-12-28T00:44:25;1.20;99.90
53498;DHT22;39382;47.168;16.008;2023-12-28T00:46:51;1.30;99.90
53498;DHT22;39382;47.168;16.008;2023-12-28T00:49:16;1.20;99.90
53498;DHT22;39382;47.168;16.008;2023-12-28T00:51:42;1.10;99.90
53498;DHT22;39382;47.168;16.008;2023-12-28T00:54:07;1.10;99.90
53498;DHT22;39382;47.168;16.008;2023-12-28T00:56:33;1.10;99.90
53498;DHT22;39382;47.168;16.008;2023-12-28T00:58:59;1.00;99.90
53498;DHT22;39382;47.168;16.008;2023-12-28T01:01:27;2.50;99.90
53498;DHT22;39382;47.168;16.008;2023-12-28T01:03:52;1.00;99.90
53498;DHT22;39382;47.168;16.008;2023-12-28T01:06:18;0.90;99.90
53498;DHT22;39382;47.168;16.008;2023-12-28T01:08:43;1.00;99.90
53498;DHT22;39382;47.168;16.008;2023-12-28T01:11:11;1.10;99.90
53498;DHT22;39382;47.168;16.008;2023-12-28T01:13:37;1.30;99.90
53498;DHT22;39382;47.168;16.008;2023-12-28T01:16:03;1.30;99.90
53498;DHT22;39382;47.168;16.008;2023-12-28T01:18:29;1.20;99.90
53498;DHT22;39382;47.168;16.008;2023-12-28T01:20:55;1.10;99.90
53498;DHT22;39382;47.168;16.008;2023-12-28T01:23:20;1.00;99.90
53498;DHT22;39382;47.168;16.008;2023-12-28T01:25:46;1.10;99.90
53498;DHT22;39382;47.168;16.008;2023-12-28T01:28:12;1.00;99.90
53498;DHT22;39382;47.168;16.008;2023-12-28T01:30:37;1.00;99.90
53498;DHT22;39382;47.168;16.008;2023-12-28T01:33:04;1.10;99.90
53498;DHT22;39382;47.168;16.008;2023-12-28T01:35:29;1.10;99.90
53498;DHT22;39382;47.168;16.008;2023-12-28T01:37:55;1.10;99.90
53498;DHT22;39382;47.168;16.008;2023-12-28T01:40:21;0.90;99.90
53498;DHT22;39382;47.168;16.008;2023-12-28T01:42:46;1.00;99.90
53498;DHT22;39382;47.168;16.008;2023-12-28T01:45:12;1.10;99.90
53498;DHT22;39382;47.168;16.008;2023-12-28T01:47:37;1.00;99.90
53498;DHT22;39382;47.168;16.008;2023-12-28T01:50:06;2.10;99.90
53498;DHT22;39382;47.168;16.008;2023-12-28T01:52:32;1.10;99.90
53498;DHT22;39382;47.168;16.008;2023-12-28T01:54:58;1.10;99.90
53498;DHT22;39382;47.168;16.008;2023-12-28T01:57:23;0.90;99.90
53498;DHT22;39382;47.168;16.008;2023-12-28T01:59:50;0.90;99.90
53498;DHT22;39382;47.168;16.008;2023-12-28T02:02:16;1.10;99.90
53498;DHT22;39382;47.168;16.008;2023-12-28T02:04:42;1.10;99.90
53498;DHT22;39382;47.168;16.008;2023-12-28T02:07:09;2.00;99.90
53498;DHT22;39382;47.168;16.008;2023-12-28T02:09:36;1.00;99.90
53498;DHT22;39382;47.168;16.008;2023-12-28T02:12:01;1.00;99.90
53498;DHT22;39382;47.168;16.008;2023-12-28T02:14:28;1.00;99.90
53498;DHT22;39382;47.168;16.008;2023-12-28T02:19:59;1.00;99.90
53498;DHT22;39382;47.168;16.008;2023-12-28T02:22:26;0.90;99.90
53498;DHT22;39382;47.168;16.008;2023-12-28T02:25:09;0.90;99.90
53498;DHT22;39382;47.168;16.008;2023-12-28T02:27:44;0.90;99.90
53498;DHT22;39382;47.168;16.008;2023-12-28T02:30:13;1.00;99.90
53498;DHT22;39382;47.168;16.008;2023-12-28T02:33:15;0.90;99.90
53498;DHT22;39382;47.168;16.008;2023-12-28T02:35:51;0.90;99.90
53498;DHT22;39382;47.168;16.008;2023-12-28T02:38:18;0.90;99.90
53498;DHT22;39382;47.168;16.008;2023-12-28T02:40:44;0.80;99.90
53498;DHT22;39382;47.168;16.008;2023-12-28T02:43:11;0.80;99.90
53498;DHT22;39382;47.168;16.008;2023-12-28T02:45:38;0.70;99.90
53498;DHT22;39382;47.168;16.008;2023-12-28T02:48:04;0.70;99.90
53498;DHT22;39382;47.168;16.008;2023-12-28T02:50:31;0.80;99.90
53498;DHT22;39382;47.168;16.008;2023-12-28T02:52:57;0.70;99.90
53498;DHT22;39382;47.168;16.008;2023-12-28T02:55:23;0.70;99.90
53498;DHT22;39382;47.168;16.008;2023-12-28T02:57:50;0.60;99.90
53498;DHT22;39382;47.168;16.008;2023-12-28T03:00:16;0.60;99.90
53498;DHT22;39382;47.168;16.008;2023-12-28T03:02:42;0.50;99.90
53498;DHT22;39382;47.168;16.008;2023-12-28T03:05:09;0.40;99.90
53498;DHT22;39382;47.168;16.008;2023-12-28T03:07:35;0.40;99.90
53498;DHT22;39382;47.168;16.008;2023-12-28T03:10:01;0.30;99.90
53498;DHT22;39382;47.168;16.008;2023-12-28T03:12:28;0.50;99.90
53498;DHT22;39382;47.168;16.008;2023-12-28T03:14:54;0.50;99.90
53498;DHT22;39382;47.168;16.008;2023-12-28T03:17:20;0.30;99.90
53498;DHT22;39382;47.168;16.008;2023-12-28T03:19:46;0.40;99.90
53498;DHT22;39382;47.168;16.008;2023-12-28T03:22:11;0.40;99.90
53498;DHT22;39382;47.168;16.008;2023-12-28T03:24:37;0.40;99.90
53498;DHT22;39382;47.168;16.008;2023-12-28T03:27:04;0.40;99.90
53498;DHT22;39382;47.168;16.008;2023-12-28T03:29:30;0.40;99.90
53498;DHT22;39382;47.168;16.008;2023-12-28T03:31:56;0.30;99.90
53498;DHT22;39382;47.168;16.008;2023-12-28T03:34:22;0.30;99.90
53498;DHT22;39382;47.168;16.008;2023-12-28T03:36:49;0.30;99.90
53498;DHT22;39382;47.168;16.008;2023-12-28T03:39:14;0.30;99.90
53498;DHT22;39382;47.168;16.008;2023-12-28T03:41:40;0.30;99.90
53498;DHT22;39382;47.168;16.008;2023-12-28T03:44:06;0.30;99.90
53498;DHT22;39382;47.168;16.008;2023-12-28T03:46:31;0.30;99.90
53498;DHT22;39382;47.168;16.008;2023-12-28T03:48:57;0.40;99.90
53498;DHT22;39382;47.168;16.008;2023-12-28T03:51:22;0.40;99.90
53498;DHT22;39382;47.168;16.008;2023-12-28T03:53:48;0.40;99.90
53498;DHT22;39382;47.168;16.008;2023-12-28T03:56:25;0.40;99.90
53498;DHT22;39382;47.168;16.008;2023-12-28T03:58:51;0.60;99.90
53498;DHT22;39382;47.168;16.008;2023-12-28T04:01:19;0.50;99.90
53498;DHT22;39382;47.168;16.008;2023-12-28T04:03:45;0.40;99.90
53498;DHT22;39382;47.168;16.008;2023-12-28T04:06:11;0.50;99.90
53498;DHT22;39382;47.168;16.008;2023-12-28T04:08:38;0.60;99.90
53498;DHT22;39382;47.168;16.008;2023-12-28T04:11:04;0.40;99.90
53498;DHT22;39382;47.168;16.008;2023-12-28T04:13:29;0.50;99.90
53498;DHT22;39382;47.168;16.008;2023-12-28T04:15:55;0.50;99.90
53498;DHT22;39382;47.168;16.008;2023-12-28T04:18:20;0.40;99.90
53498;DHT22;39382;47.168;16.008;2023-12-28T04:20:46;0.50;99.90
53498;DHT22;39382;47.168;16.008;2023-12-28T04:23:12;0.50;99.90
53498;DHT22;39382;47.168;16.008;2023-12-28T04:25:37;0.50;99.90
53498;DHT22;39382;47.168;16.008;2023-12-28T04:28:03;0.60;99.90
53498;DHT22;39382;47.168;16.008;2023-12-28T04:30:28;0.50;99.90
53498;DHT22;39382;47.168;16.008;2023-12-28T04:32:54;0.40;99.90
53498;DHT22;39382;47.168;16.008;2023-12-28T04:35:20;0.30;99.90
53498;DHT22;39382;47.168;16.008;2023-12-28T04:37:45;0.30;99.90
53498;DHT22;39382;47.168;16.008;2023-12-28T04:40:11;0.30;99.90
53498;DHT22;39382;47.168;16.008;2023-12-28T04:42:39;0.30;99.90
53498;DHT22;39382;47.168;16.008;2023-12-28T04:45:05;0.30;99.90
53498;DHT22;39382;47.168;16.008;2023-12-28T04:47:31;0.50;99.90
53498;DHT22;39382;47.168;16.008;2023-12-28T04:49:57;0.30;99.90
53498;DHT22;39382;47.168;16.008;2023-12-28T04:52:22;0.40;99.90
53498;DHT22;39382;47.168;16.008;2023-12-28T04:54:48;0.30;99.90
53498;DHT22;39382;47.168;16.008;2023-12-28T04:57:14;0.30;99.90
53498;DHT22;39382;47.168;16.008;2023-12-28T04:59:40;0.20;99.90
53498;DHT22;39382;47.168;16.008;2023-12-28T05:02:06;0.30;99.90
53498;DHT22;39382;47.168;16.008;2023-12-28T05:04:32;0.30;99.90
53498;DHT22;39382;47.168;16.008;2023-12-28T05:06:57;0.10;99.90
53498;DHT22;39382;47.168;16.008;2023-12-28T05:09:23;0.40;99.90
53498;DHT22;39382;47.168;16.008;2023-12-28T05:11:48;0.30;99.90
53498;DHT22;39382;47.168;16.008;2023-12-28T05:14:14;0.40;99.90
53498;DHT22;39382;47.168;16.008;2023-12-28T05:16:40;0.30;99.90
53498;DHT22;39382;47.168;16.008;2023-12-28T05:19:05;0.30;99.90
53498;DHT22;39382;47.168;16.008;2023-12-28T05:21:31;0.20;99.90
53498;DHT22;39382;47.168;16.008;2023-12-28T05:23:56;0.20;99.90
53498;DHT22;39382;47.168;16.008;2023-12-28T05:26:22;0.20;99.90
53498;DHT22;39382;47.168;16.008;2023-12-28T05:28:49;0.20;99.90
53498;DHT22;39382;47.168;16.008;2023-12-28T05:31:15;0.30;99.90
53498;DHT22;39382;47.168;16.008;2023-12-28T05:33:40;0.20;99.90
53498;DHT22;39382;47.168;16.008;2023-12-28T05:36:06;0.30;99.90
53498;DHT22;39382;47.168;16.008;2023-12-28T05:38:32;0.40;99.90
53498;DHT22;39382;47.168;16.008;2023-12-28T05:40:57;0.20;99.90
53498;DHT22;39382;47.168;16.008;2023-12-28T05:43:23;0.20;99.90
53498;DHT22;39382;47.168;16.008;2023-12-28T05:45:49;0.10;99.90
53498;DHT22;39382;47.168;16.008;2023-12-28T05:48:14;0.10;99.90
53498;DHT22;39382;47.168;16.008;2023-12-28T05:50:40;0.30;99.90
53498;DHT22;39382;47.168;16.008;2023-12-28T05:53:06;0.20;99.90
53498;DHT22;39382;47.168;16.008;2023-12-28T05:55:31;1.60;99.90
53498;DHT22;39382;47.168;16.008;2023-12-28T05:57:57;1.20;99.90
53498;DHT22;39382;47.168;16.008;2023-12-28T06:00:22;1.00;99.90
53498;DHT22;39382;47.168;16.008;2023-12-28T06:02:48;0.80;99.90
53498;DHT22;39382;47.168;16.008;2023-12-28T06:05:17;0.60;99.90
53498;DHT22;39382;47.168;16.008;2023-12-28T06:07:43;0.50;99.90
53498;DHT22;39382;47.168;16.008;2023-12-28T06:10:09;0.40;99.90
53498;DHT22;39382;47.168;16.008;2023-12-28T06:12:35;0.40;99.90
53498;DHT22;39382;47.168;16.008;2023-12-28T06:15:02;0.40;99.90
53498;DHT22;39382;47.168;16.008;2023-12-28T06:17:28;0.10;99.90
53498;DHT22;39382;47.168;16.008;2023-12-28T06:19:54;0.30;99.90
53498;DHT22;39382;47.168;16.008;2023-12-28T06:22:19;0.20;99.90
53498;DHT22;39382;47.168;16.008;2023-12-28T06:24:45;0.20;99.90
53498;DHT22;39382;47.168;16.008;2023-12-28T06:27:11;0.20;99.90
53498;DHT22;39382;47.168;16.008;2023-12-28T06:29:36;0.10;99.90
53498;DHT22;39382;47.168;16.008;2023-12-28T06:32:02;0.10;99.90
53498;DHT22;39382;47.168;16.008;2023-12-28T06:34:28;0.10;99.90
53498;DHT22;39382;47.168;16.008;2023-12-28T06:36:54;0.00;99.90
53498;DHT22;39382;47.168;16.008;2023-12-28T06:39:19;-0.10;99.90
53498;DHT22;39382;47.168;16.008;2023-12-28T06:41:48;-0.10;99.90
53498;DHT22;39382;47.168;16.008;2023-12-28T06:44:14;-0.20;99.90
53498;DHT22;39382;47.168;16.008;2023-12-28T06:46:40;-0.10;99.90
53498;DHT22;39382;47.168;16.008;2023-12-28T06:49:06;-0.20;99.90
53498;DHT22;39382;47.168;16.008;2023-12-28T06:51:32;-0.20;99.90
53498;DHT22;39382;47.168;16.008;2023-12-28T06:53:58;-0.20;99.90
53498;DHT22;39382;47.168;16.008;2023-12-28T06:56:24;-0.30;99.90
53498;DHT22;39382;47.168;16.008;2023-12-28T06:58:50;-0.20;99.90
53498;DHT22;39382;47.168;16.008;2023-12-28T07:01:16;-0.20;99.90
53498;DHT22;39382;47.168;16.008;2023-12-28T07:03:41;-0.30;99.90
53498;DHT22;39382;47.168;16.008;2023-12-28T07:06:07;-0.30;99.90
53498;DHT22;39382;47.168;16.008;2023-12-28T07:08:33;-0.30;99.90
53498;DHT22;39382;47.168;16.008;2023-12-28T07:10:59;-0.30;99.90
53498;DHT22;39382;47.168;16.008;2023-12-28T07:13:25;-0.30;99.90
53498;DHT22;39382;47.168;16.008;2023-12-28T07:15:51;-0.20;99.90
53498;DHT22;39382;47.168;16.008;2023-12-28T07:18:17;-0.20;99.90
53498;DHT22;39382;47.168;16.008;2023-12-28T07:20:43;-0.30;99.90
53498;DHT22;39382;47.168;16.008;2023-12-28T07:23:08;-0.30;99.90
53498;DHT22;39382;47.168;16.008;2023-12-28T07:25:34;-0.30;99.90
53498;DHT22;39382;47.168;16.008;2023-12-28T07:28:00;-0.40;99.90
53498;DHT22;39382;47.168;16.008;2023-12-28T07:30:25;-0.20;99.90
53498;DHT22;39382;47.168;16.008;2023-12-28T07:32:51;-0.20;99.90
53498;DHT22;39382;47.168;16.008;2023-12-28T07:35:17;-0.20;99.90
53498;DHT22;39382;47.168;16.008;2023-12-28T07:37:43;-0.20;99.90
53498;DHT22;39382;47.168;16.008;2023-12-28T07:40:11;-0.20;99.90
53498;DHT22;39382;47.168;16.008;2023-12-28T07:42:37;-0.10;99.90
53498;DHT22;39382;47.168;16.008;2023-12-28T07:45:03;-0.10;99.90
53498;DHT22;39382;47.168;16.008;2023-12-28T07:47:29;-0.10;99.90
53498;DHT22;39382;47.168;16.008;2023-12-28T07:49:55;-0.10;99.90
53498;DHT22;39382;47.168;16.008;2023-12-28T07:52:21;-0.20;99.90
53498;DHT22;39382;47.168;16.008;2023-12-28T07:54:46;-0.20;99.90
53498;DHT22;39382;47.168;16.008;2023-12-28T07:57:12;-0.10;99.90
53498;DHT22;39382;47.168;16.008;2023-12-28T07:59:38;0.00;99.90
53498;DHT22;39382;47.168;16.008;2023-12-28T08:02:03;-0.10;99.90
53498;DHT22;39382;47.168;16.008;2023-12-28T08:04:29;0.00;99.90
53498;DHT22;39382;47.168;16.008;2023-12-28T08:06:55;0.20;99.90
53498;DHT22;39382;47.168;16.008;2023-12-28T08:09:20;-0.10;99.90
53498;DHT22;39382;47.168;16.008;2023-12-28T08:11:46;1.20;99.90
53498;DHT22;39382;47.168;16.008;2023-12-28T08:14:11;0.40;99.90
53498;DHT22;39382;47.168;16.008;2023-12-28T08:16:37;0.20;99.90
53498;DHT22;39382;47.168;16.008;2023-12-28T08:19:03;0.20;99.90
53498;DHT22;39382;47.168;16.008;2023-12-28T08:21:28;0.10;99.90
53498;DHT22;39382;47.168;16.008;2023-12-28T08:23:54;0.00;99.90
53498;DHT22;39382;47.168;16.008;2023-12-28T08:26:20;0.20;99.90
53498;DHT22;39382;47.168;16.008;2023-12-28T08:28:45;0.30;99.90
53498;DHT22;39382;47.168;16.008;2023-12-28T08:31:11;0.40;99.90
53498;DHT22;39382;47.168;16.008;2023-12-28T08:33:37;0.50;99.90
53498;DHT22;39382;47.168;16.008;2023-12-28T08:36:09;0.40;99.90
53498;DHT22;39382;47.168;16.008;2023-12-28T08:38:35;0.50;99.90
53498;DHT22;39382;47.168;16.008;2023-12-28T08:41:00;1.00;99.90
53498;DHT22;39382;47.168;16.008;2023-12-28T08:43:29;0.40;99.90
53498;DHT22;39382;47.168;16.008;2023-12-28T08:45:54;0.30;99.90
53498;DHT22;39382;47.168;16.008;2023-12-28T08:48:20;1.40;99.90
53498;DHT22;39382;47.168;16.008;2023-12-28T08:50:46;0.30;99.90
53498;DHT22;39382;47.168;16.008;2023-12-28T08:53:12;0.40;99.90
53498;DHT22;39382;47.168;16.008;2023-12-28T08:55:37;0.50;99.90
53498;DHT22;39382;47.168;16.008;2023-12-28T08:58:04;0.90;99.90
53498;DHT22;39382;47.168;16.008;2023-12-28T09:00:30;0.70;99.90
53498;DHT22;39382;47.168;16.008;2023-12-28T09:02:55;0.80;99.90
53498;DHT22;39382;47.168;16.008;2023-12-28T09:05:21;1.00;99.90
53498;DHT22;39382;47.168;16.008;2023-12-28T09:07:47;0.70;99.90
53498;DHT22;39382;47.168;16.008;2023-12-28T09:10:13;0.90;99.90
53498;DHT22;39382;47.168;16.008;2023-12-28T09:12:40;0.60;99.90
53498;DHT22;39382;47.168;16.008;2023-12-28T09:15:06;0.80;99.90
53498;DHT22;39382;47.168;16.008;2023-12-28T09:17:32;1.10;99.90
53498;DHT22;39382;47.168;16.008;2023-12-28T09:19:58;1.00;99.90
53498;DHT22;39382;47.168;16.008;2023-12-28T09:22:24;0.90;99.90
53498;DHT22;39382;47.168;16.008;2023-12-28T09:24:50;1.00;99.90
53498;DHT22;39382;47.168;16.008;2023-12-28T09:27:16;1.40;99.90
53498;DHT22;39382;47.168;16.008;2023-12-28T09:29:41;1.60;99.90
53498;DHT22;39382;47.168;16.008;2023-12-28T09:32:07;1.30;99.90
53498;DHT22;39382;47.168;16.008;2023-12-28T09:34:33;1.20;99.90
53498;DHT22;39382;47.168;16.008;2023-12-28T09:36:58;4.70;99.90
53498;DHT22;39382;47.168;16.008;2023-12-28T09:39:24;3.20;99.90
53498;DHT22;39382;47.168;16.008;2023-12-28T09:41:55;2.70;99.90
53498;DHT22;39382;47.168;16.008;2023-12-28T09:44:24;2.40;99.90
53498;DHT22;39382;47.168;16.008;2023-12-28T09:46:50;2.40;99.90
53498;DHT22;39382;47.168;16.008;2023-12-28T09:49:20;2.30;99.90
53498;DHT22;39382;47.168;16.008;2023-12-28T09:51:47;2.00;99.90
53498;DHT22;39382;47.168;16.008;2023-12-28T09:54:13;2.00;99.90
53498;DHT22;39382;47.168;16.008;2023-12-28T09:56:40;2.00;99.90
53498;DHT22;39382;47.168;16.008;2023-12-28T09:59:06;2.10;99.90
53498;DHT22;39382;47.168;16.008;2023-12-28T10:01:33;2.40;99.90
53498;DHT22;39382;47.168;16.008;2023-12-28T10:04:00;2.20;99.90
53498;DHT22;39382;47.168;16.008;2023-12-28T10:06:26;2.20;99.90
53498;DHT22;39382;47.168;16.008;2023-12-28T10:08:52;4.30;99.90
53498;DHT22;39382;47.168;16.008;2023-12-28T10:11:18;6.50;99.90
53498;DHT22;39382;47.168;16.008;2023-12-28T10:13:45;6.80;99.90
53498;DHT22;39382;47.168;16.008;2023-12-28T10:16:11;6.60;99.90
53498;DHT22;39382;47.168;16.008;2023-12-28T10:18:43;5.80;99.90
53498;DHT22;39382;47.168;16.008;2023-12-28T10:21:09;5.20;99.90
53498;DHT22;39382;47.168;16.008;2023-12-28T10:23:35;5.00;99.90
53498;DHT22;39382;47.168;16.008;2023-12-28T10:26:02;4.70;99.90
53498;DHT22;39382;47.168;16.008;2023-12-28T10:28:34;4.40;99.90
53498;DHT22;39382;47.168;16.008;2023-12-28T10:31:04;4.40;99.90
53498;DHT22;39382;47.168;16.008;2023-12-28T10:33:37;4.40;99.90
53498;DHT22;39382;47.168;16.008;2023-12-28T10:36:07;6.00;99.90
53498;DHT22;39382;47.168;16.008;2023-12-28T10:38:35;4.40;99.90
53498;DHT22;39382;47.168;16.008;2023-12-28T10:41:06;4.40;99.90
53498;DHT22;39382;47.168;16.008;2023-12-28T10:46:06;4.30;99.90
53498;DHT22;39382;47.168;16.008;2023-12-28T10:48:38;5.10;99.90
53498;DHT22;39382;47.168;16.008;2023-12-28T10:51:06;4.90;99.90
53498;DHT22;39382;47.168;16.008;2023-12-28T10:53:43;4.70;99.90
53498;DHT22;39382;47.168;16.008;2023-12-28T10:56:20;4.90;99.90
53498;DHT22;39382;47.168;16.008;2023-12-28T10:59:05;5.00;99.90
53498;DHT22;39382;47.168;16.008;2023-12-28T11:01:37;5.10;99.90
53498;DHT22;39382;47.168;16.008;2023-12-28T11:06:31;5.80;99.90
53498;DHT22;39382;47.168;16.008;2023-12-28T11:08:59;5.50;99.90
53498;DHT22;39382;47.168;16.008;2023-12-28T11:11:27;5.90;99.90
53498;DHT22;39382;47.168;16.008;2023-12-28T11:13:54;5.50;99.90
53498;DHT22;39382;47.168;16.008;2023-12-28T11:16:22;5.60;99.90
53498;DHT22;39382;47.168;16.008;2023-12-28T11:18:48;5.80;99.90
53498;DHT22;39382;47.168;16.008;2023-12-28T11:21:16;5.90;99.90
53498;DHT22;39382;47.168;16.008;2023-12-28T11:23:42;5.90;99.90
53498;DHT22;39382;47.168;16.008;2023-12-28T11:26:21;6.00;99.90
53498;DHT22;39382;47.168;16.008;2023-12-28T11:28:47;6.20;99.90
53498;DHT22;39382;47.168;16.008;2023-12-28T11:31:17;6.20;99.90
53498;DHT22;39382;47.168;16.008;2023-12-28T11:33:46;6.50;99.90
53498;DHT22;39382;47.168;16.008;2023-12-28T11:36:24;6.50;99.90
53498;DHT22;39382;47.168;16.008;2023-12-28T11:38:53;6.60;99.90
53498;DHT22;39382;47.168;16.008;2023-12-28T11:41:20;6.70;99.90
53498;DHT22;39382;47.168;16.008;2023-12-28T11:43:52;6.80;99.90
53498;DHT22;39382;47.168;16.008;2023-12-28T11:46:20;7.10;99.90
53498;DHT22;39382;47.168;16.008;2023-12-28T11:48:45;7.10;99.90
53498;DHT22;39382;47.168;16.008;2023-12-28T11:51:11;7.20;99.90
53498;DHT22;39382;47.168;16.008;2023-12-28T11:53:38;7.10;99.90
53498;DHT22;39382;47.168;16.008;2023-12-28T11:56:03;7.30;99.90
53498;DHT22;39382;47.168;16.008;2023-12-28T11:58:31;7.20;99.90
53498;DHT22;39382;47.168;16.008;2023-12-28T12:00:58;7.30;99.90
53498;DHT22;39382;47.168;16.008;2023-12-28T12:03:25;7.30;99.90
53498;DHT22;39382;47.168;16.008;2023-12-28T12:05:51;7.50;99.90
53498;DHT22;39382;47.168;16.008;2023-12-28T12:08:17;7.50;99.90
53498;DHT22;39382;47.168;16.008;2023-12-28T12:10:43;7.60;99.90
53498;DHT22;39382;47.168;16.008;2023-12-28T12:13:09;7.60;99.90
53498;DHT22;39382;47.168;16.008;2023-12-28T12:15:34;7.70;99.90
53498;DHT22;39382;47.168;16.008;2023-12-28T12:18:01;7.70;99.90
53498;DHT22;39382;47.168;16.008;2023-12-28T12:20:28;7.80;99.90
53498;DHT22;39382;47.168;16.008;2023-12-28T12:22:58;7.70;99.90
53498;DHT22;39382;47.168;16.008;2023-12-28T12:25:23;8.00;99.90
53498;DHT22;39382;47.168;16.008;2023-12-28T12:27:49;7.80;99.90
53498;DHT22;39382;47.168;16.008;2023-12-28T12:30:15;8.10;99.90
53498;DHT22;39382;47.168;16.008;2023-12-28T12:32:41;7.80;99.90
53498;DHT22;39382;47.168;16.008;2023-12-28T12:35:09;7.80;99.90
53498;DHT22;39382;47.168;16.008;2023-12-28T12:37:36;7.70;99.90
53498;DHT22;39382;47.168;16.008;2023-12-28T12:40:02;7.70;99.90
53498;DHT22;39382;47.168;16.008;2023-12-28T12:42:28;7.60;99.90
53498;DHT22;39382;47.168;16.008;2023-12-28T12:44:54;7.70;99.90
53498;DHT22;39382;47.168;16.008;2023-12-28T12:47:20;7.60;99.90
53498;DHT22;39382;47.168;16.008;2023-12-28T12:49:45;7.60;99.90
53498;DHT22;39382;47.168;16.008;2023-12-28T12:52:12;7.40;99.90
53498;DHT22;39382;47.168;16.008;2023-12-28T12:54:38;7.20;99.90
53498;DHT22;39382;47.168;16.008;2023-12-28T12:57:03;7.30;99.90
53498;DHT22;39382;47.168;16.008;2023-12-28T12:59:29;7.20;99.90
53498;DHT22;39382;47.168;16.008;2023-12-28T13:01:56;7.30;99.90
53498;DHT22;39382;47.168;16.008;2023-12-28T13:04:21;7.90;99.90
53498;DHT22;39382;47.168;16.008;2023-12-28T13:06:47;7.70;99.90
53498;DHT22;39382;47.168;16.008;2023-12-28T13:09:13;7.40;99.90
53498;DHT22;39382;47.168;16.008;2023-12-28T13:11:39;7.50;99.90
53498;DHT22;39382;47.168;16.008;2023-12-28T13:14:04;7.50;99.90
53498;DHT22;39382;47.168;16.008;2023-12-28T13:16:30;7.70;99.90
53498;DHT22;39382;47.168;16.008;2023-12-28T13:18:56;7.40;99.90
53498;DHT22;39382;47.168;16.008;2023-12-28T13:21:22;7.40;99.90
53498;DHT22;39382;47.168;16.008;2023-12-28T13:23:47;7.40;99.90
53498;DHT22;39382;47.168;16.008;2023-12-28T13:26:13;7.40;99.90
53498;DHT22;39382;47.168;16.008;2023-12-28T13:28:39;7.30;99.90
53498;DHT22;39382;47.168;16.008;2023-12-28T13:31:04;7.30;99.90
53498;DHT22;39382;47.168;16.008;2023-12-28T13:33:31;7.30;99.90
53498;DHT22;39382;47.168;16.008;2023-12-28T13:35:56;7.20;99.90
53498;DHT22;39382;47.168;16.008;2023-12-28T13:38:23;7.20;99.90
53498;DHT22;39382;47.168;16.008;2023-12-28T13:40:48;7.20;99.90
53498;DHT22;39382;47.168;16.008;2023-12-28T13:43:14;7.30;99.90
53498;DHT22;39382;47.168;16.008;2023-12-28T13:45:40;7.10;99.90
53498;DHT22;39382;47.168;16.008;2023-12-28T13:48:06;7.10;99.90
53498;DHT22;39382;47.168;16.008;2023-12-28T13:50:32;7.10;99.90
53498;DHT22;39382;47.168;16.008;2023-12-28T13:52:57;7.10;99.90
53498;DHT22;39382;47.168;16.008;2023-12-28T13:55:23;7.00;99.90
53498;DHT22;39382;47.168;16.008;2023-12-28T13:57:49;6.90;99.90
53498;DHT22;39382;47.168;16.008;2023-12-28T14:00:15;6.90;99.90
53498;DHT22;39382;47.168;16.008;2023-12-28T14:02:40;6.60;99.90
53498;DHT22;39382;47.168;16.008;2023-12-28T14:05:07;6.60;99.90
53498;DHT22;39382;47.168;16.008;2023-12-28T14:07:32;6.70;99.90
53498;DHT22;39382;47.168;16.008;2023-12-28T14:09:58;6.50;99.90
53498;DHT22;39382;47.168;16.008;2023-12-28T14:12:24;6.40;99.90
53498;DHT22;39382;47.168;16.008;2023-12-28T14:14:49;6.40;99.90
53498;DHT22;39382;47.168;16.008;2023-12-28T14:17:15;6.30;99.90
53498;DHT22;39382;47.168;16.008;2023-12-28T14:19:45;6.40;99.90
53498;DHT22;39382;47.168;16.008;2023-12-28T14:22:11;6.50;99.90
53498;DHT22;39382;47.168;16.008;2023-12-28T14:24:37;6.10;99.90
53498;DHT22;39382;47.168;16.008;2023-12-28T14:27:03;6.00;99.90
53498;DHT22;39382;47.168;16.008;2023-12-28T14:29:29;5.90;99.90
53498;DHT22;39382;47.168;16.008;2023-12-28T14:31:55;5.80;99.90
53498;DHT22;39382;47.168;16.008;2023-12-28T14:34:21;5.70;99.90
53498;DHT22;39382;47.168;16.008;2023-12-28T14:36:48;5.50;99.90
53498;DHT22;39382;47.168;16.008;2023-12-28T14:39:15;5.50;99.90
53498;DHT22;39382;47.168;16.008;2023-12-28T14:41:44;5.40;99.90
53498;DHT22;39382;47.168;16.008;2023-12-28T14:44:10;5.00;99.90
53498;DHT22;39382;47.168;16.008;2023-12-28T14:46:35;4.80;99.90
53498;DHT22;39382;47.168;16.008;2023-12-28T14:49:01;5.00;99.90
53498;DHT22;39382;47.168;16.008;2023-12-28T14:51:28;4.60;99.90
53498;DHT22;39382;47.168;16.008;2023-12-28T14:53:54;4.50;99.90
53498;DHT22;39382;47.168;16.008;2023-12-28T14:56:20;4.40;99.90
53498;DHT22;39382;47.168;16.008;2023-12-28T14:58:46;4.30;99.90
53498;DHT22;39382;47.168;16.008;2023-12-28T15:01:16;4.10;99.90
53498;DHT22;39382;47.168;16.008;2023-12-28T15:03:42;4.10;99.90
53498;DHT22;39382;47.168;16.008;2023-12-28T15:06:08;4.20;99.90
53498;DHT22;39382;47.168;16.008;2023-12-28T15:08:35;4.00;99.90
53498;DHT22;39382;47.168;16.008;2023-12-28T15:11:02;3.90;99.90
53498;DHT22;39382;47.168;16.008;2023-12-28T15:13:28;3.70;99.90
53498;DHT22;39382;47.168;16.008;2023-12-28T15:15:54;3.60;99.90
53498;DHT22;39382;47.168;16.008;2023-12-28T15:18:20;3.60;99.90
53498;DHT22;39382;47.168;16.008;2023-12-28T15:20:46;3.40;99.90
53498;DHT22;39382;47.168;16.008;2023-12-28T15:23:13;3.30;99.90
53498;DHT22;39382;47.168;16.008;2023-12-28T15:25:41;3.30;99.90
53498;DHT22;39382;47.168;16.008;2023-12-28T15:28:06;3.20;99.90
53498;DHT22;39382;47.168;16.008;2023-12-28T15:30:32;3.20;99.90
53498;DHT22;39382;47.168;16.008;2023-12-28T15:32:58;3.10;99.90